Galena, Nevada Weather observations

Data are for 10 minute period ending at time listed.
 Day   Time    Ave.   Ave.  Ave.  Vector   Max.   Total    Solar   
  of    of     Air    Rel.  Wind   Wind    Wind  Precip.   Rad.    
Year   Day     Temp.  Hum.  Speed  Dir.    Gust                    
2014   (PST)    F      %     mph   deg.    mph     in.     W/m2    
------------------------------------------------------------------- 
 208   18:00   85.0    13    7.0   282     19.0    2.41     144  
 208   19:00   82.0    13    6.0   279     19.0    2.41      51  
 208   20:00   77.0    15    4.0   303     16.0    2.41       6  
 208   21:00   75.0    19    4.0   282     15.0    2.41       0  
 208   22:00   75.0    21    6.0   280     13.0    2.41       0  
 208   23:00   71.0    24    4.0   221     13.0    2.41       0  
 209    0:00   69.0    24    3.0   318      8.0    2.41       0  
 209    1:00   69.0    26    2.0   261      9.0    2.41       0  
 209    2:00   68.0    25    3.0   265      6.0    2.41       0  
 209    3:00   66.0    27    5.0   294      8.0    2.41       0  
 209    4:00   66.0    28    3.0   271      7.0    2.41       0  
 209    5:00   68.0    25    4.0   283      8.0    2.41       0  
 209    6:00   66.0    29    2.0   275      6.0    2.41      36  
 209    7:00   75.0    23    3.0   181      6.0    2.41     163  
 209    8:00   77.0    19    6.0    66     10.0    2.41     386  
 209    9:00   79.0    17    7.0    59     11.0    2.41     555  
 209   10:00   84.0    14    5.0     4     12.0    2.41     732  
 209   11:00   86.0    11    8.0    26     14.0    2.41     828  
 209   12:00   89.0    12    7.0    15     15.0    2.41     974  
 209   13:00   93.0    10    5.0   166     15.0    2.41     993  
 209   14:00   84.0    15    9.0   346     24.0    2.41     244  
 209   15:00   89.0    13    6.0   278     16.0    2.41     824  
 209   16:00   85.0    18   10.0   269     30.0    2.41     393  
 209   17:00   82.0    21    5.0   214     23.0    2.41     212  

Return to Galena, Nevada graphs page.


Western Regional Climate Center,wrcc@dri.edu